Time;durP1;ratioP1;P1;durP2;ratioP2;P2;SDS_P1;SDS_P2;PMS_P1;PMS_P2;Temp;Humidity;BMP_temperature;BMP_pressure;BME280_temperature;BME280_humidity;BME280_pressure;Samples;Min_cycle;Max_cycle;Signal;HPM_P1;HPM_P2
2022/01/16 00:01:07;;;;;;;20.00;8.90;;;;;;;;;;4992664;28;20200;-49
2022/01/16 00:06:18;;;;;;;15.63;9.35;;;;;;;;;;4992721;28;20219;-50
2022/01/16 00:08:45;;;;;;;14.20;9.50;;;;;;;;;;4992496;28;20555;-49
2022/01/16 00:11:14;;;;;;;14.98;10.30;;;;;;;;;;4992551;28;20400;-49
2022/01/16 00:13:41;;;;;;;17.58;9.90;;;;;;;;;;4991153;28;20203;-50
2022/01/16 00:16:07;;;;;;;15.38;9.23;;;;;;;;;;4992476;28;20659;-50
2022/01/16 00:18:43;;;;;;;12.50;8.83;;;;;;;;;;4992305;28;20178;-49
2022/01/16 00:21:08;;;;;;;15.82;10.55;;;;;;;;;;4992476;28;20446;-49
2022/01/16 00:23:34;;;;;;;17.30;10.10;;;;;;;;;;4991984;28;20275;-49
2022/01/16 00:26:00;;;;;;;16.43;9.90;;;;;;;;;;4992335;28;20407;-49
2022/01/16 00:28:26;;;;;;;15.60;9.43;;;;;;;;;;4992193;28;20611;-49
2022/01/16 00:30:53;;;;;;;12.95;8.82;;;;;;;;;;4992355;28;20415;-49
2022/01/16 00:33:19;;;;;;;17.75;10.00;;;;;;;;;;4991824;28;20239;-49
2022/01/16 00:35:45;;;;;;;18.30;9.80;;;;;;;;;;4992279;28;20502;-48
2022/01/16 00:38:11;;;;;;;14.70;9.95;;;;;;;;;;4993259;28;20180;-49
2022/01/16 00:40:37;;;;;;;14.98;9.65;;;;;;;;;;4996198;28;20168;-49
2022/01/16 00:43:03;;;;;;;13.63;9.50;;;;;;;;;;4995691;28;20216;-49
2022/01/16 00:45:34;;;;;;;16.42;9.40;;;;;;;;;;4994104;28;20211;-49
2022/01/16 00:48:01;;;;;;;18.73;9.23;;;;;;;;;;4995794;28;20243;-49
2022/01/16 00:50:27;;;;;;;10.35;7.72;;;;;;;;;;4996052;28;20169;-49
2022/01/16 00:52:53;;;;;;;11.67;7.67;;;;;;;;;;4995709;28;20255;-49
2022/01/16 00:55:19;;;;;;;13.43;7.88;;;;;;;;;;4995847;28;20894;-49
2022/01/16 00:57:45;;;;;;;11.10;7.80;;;;;;;;;;4995874;28;20181;-48
2022/01/16 01:00:11;;;;;;;11.67;7.90;;;;;;;;;;4995732;28;21069;-49
2022/01/16 01:02:37;;;;;;;13.10;7.38;;;;;;;;;;4995325;28;20455;-49
2022/01/16 01:05:03;;;;;;;10.90;7.60;;;;;;;;;;4995667;28;20208;-49
2022/01/16 01:07:29;;;;;;;13.23;8.20;;;;;;;;;;4995649;28;20202;-49
2022/01/16 01:09:55;;;;;;;13.05;8.32;;;;;;;;;;4995567;28;20200;-49
2022/01/16 01:12:28;;;;;;;12.83;9.50;;;;;;;;;;4995289;28;20236;-49
2022/01/16 01:15:08;;;;;;;15.27;9.90;;;;;;;;;;4993730;28;20427;-49
2022/01/16 01:17:46;;;;;;;11.68;7.95;;;;;;;;;;4995564;28;20628;-49
2022/01/16 01:20:14;;;;;;;10.70;8.15;;;;;;;;;;4995416;28;20256;-49
2022/01/16 01:22:40;;;;;;;15.68;9.13;;;;;;;;;;4995116;28;20221;-49
2022/01/16 01:25:08;;;;;;;18.20;10.02;;;;;;;;;;4995445;28;20193;-49
2022/01/16 01:27:34;;;;;;;14.73;8.88;;;;;;;;;;4995248;28;20196;-49
2022/01/16 01:30:05;;;;;;;12.30;8.00;;;;;;;;;;4995179;28;20252;-49
2022/01/16 01:32:32;;;;;;;14.77;7.68;;;;;;;;;;4994936;28;20189;-49
2022/01/16 01:34:58;;;;;;;13.13;8.00;;;;;;;;;;4993272;28;20177;-49
2022/01/16 01:37:25;;;;;;;10.00;7.97;;;;;;;;;;4995205;28;20169;-49
2022/01/16 01:39:51;;;;;;;13.82;9.30;;;;;;;;;;4995097;28;20404;-49
2022/01/16 01:42:17;;;;;;;16.90;9.10;;;;;;;;;;4994604;28;20199;-48
2022/01/16 01:52:59;;;;;;;19.10;10.40;;;;;;;;;;4994823;28;20231;-49
2022/01/16 01:55:25;;;;;;;18.52;9.45;;;;;;;;;;4994837;28;20165;-49
2022/01/16 01:57:52;;;;;;;19.95;9.90;;;;;;;;;;4994750;28;20553;-49
2022/01/16 02:00:18;;;;;;;16.65;10.43;;;;;;;;;;4994697;28;20213;-49
2022/01/16 02:03:42;;;;;;;16.67;9.77;;;;;;;;;;4993410;28;20196;-48
2022/01/16 02:05:37;;;;;;;21.77;11.45;;;;;;;;;;4986606;28;20682;-49
2022/01/16 02:08:05;;;;;;;20.15;10.18;;;;;;;;;;4994353;28;20200;-50
2022/01/16 02:10:31;;;;;;;18.23;10.38;;;;;;;;;;4994573;28;20215;-49
2022/01/16 02:13:01;;;;;;;18.92;11.18;;;;;;;;;;4994012;28;20193;-49
2022/01/16 02:27:54;;;;;;;19.90;11.02;;;;;;;;;;4994376;28;20176;-49
2022/01/16 02:31:45;;;;;;;18.77;10.77;;;;;;;;;;4994010;28;20200;-49
2022/01/16 02:37:00;;;;;;;17.73;10.68;;;;;;;;;;4993523;28;20238;-49
2022/01/16 02:39:26;;;;;;;18.42;10.45;;;;;;;;;;4993914;28;20161;-49
2022/01/16 02:41:54;;;;;;;23.20;12.38;;;;;;;;;;4993549;28;20621;-50
2022/01/16 02:44:29;;;;;;;19.75;11.40;;;;;;;;;;4993784;28;20165;-49
2022/01/16 02:46:56;;;;;;;19.80;11.27;;;;;;;;;;4993800;28;20699;-49
2022/01/16 02:49:23;;;;;;;19.23;11.30;;;;;;;;;;4993647;28;20165;-49
2022/01/16 02:51:51;;;;;;;24.27;12.73;;;;;;;;;;4993399;28;20617;-49
2022/01/16 02:54:17;;;;;;;20.77;11.82;;;;;;;;;;4993610;28;20196;-49
2022/01/16 02:56:45;;;;;;;25.65;13.02;;;;;;;;;;4993661;28;20292;-49
2022/01/16 02:59:11;;;;;;;21.45;12.15;;;;;;;;;;4993435;28;20216;-48
2022/01/16 03:01:37;;;;;;;27.95;13.32;;;;;;;;;;4993370;28;20173;-49
2022/01/16 03:04:03;;;;;;;24.85;14.02;;;;;;;;;;4993130;28;20201;-49
2022/01/16 03:06:29;;;;;;;27.57;14.60;;;;;;;;;;4992392;28;20177;-49
2022/01/16 03:08:55;;;;;;;27.47;15.17;;;;;;;;;;4993340;28;20431;-49
2022/01/16 03:11:39;;;;;;;27.70;14.10;;;;;;;;;;4993329;28;20396;-49
2022/01/16 03:14:06;;;;;;;24.15;14.25;;;;;;;;;;4991761;28;20251;-49
2022/01/16 03:16:32;;;;;;;31.98;15.20;;;;;;;;;;4993227;28;20197;-48
2022/01/16 03:21:53;;;;;;;30.70;15.32;;;;;;;;;;4987826;28;20431;-48
2022/01/16 03:24:19;;;;;;;30.40;16.67;;;;;;;;;;4986874;28;20170;-49
2022/01/16 03:26:45;;;;;;;35.20;16.80;;;;;;;;;;4986395;28;20539;-49
2022/01/16 03:29:11;;;;;;;35.67;16.40;;;;;;;;;;4988761;28;20810;-49
2022/01/16 03:31:37;;;;;;;32.67;17.23;;;;;;;;;;4991685;28;20507;-49
2022/01/16 03:34:03;;;;;;;32.40;17.97;;;;;;;;;;4992640;28;20443;-49
2022/01/16 03:36:29;;;;;;;35.27;17.30;;;;;;;;;;4992849;28;20422;-49
2022/01/16 03:38:55;;;;;;;34.80;17.98;;;;;;;;;;4992892;28;20403;-49
2022/01/16 03:41:21;;;;;;;38.07;20.07;;;;;;;;;;4992792;28;20173;-49
2022/01/16 03:43:47;;;;;;;39.28;17.65;;;;;;;;;;4992429;28;20420;-49
2022/01/16 03:46:13;;;;;;;34.95;19.02;;;;;;;;;;4992634;28;20189;-49
2022/01/16 03:48:39;;;;;;;38.22;20.20;;;;;;;;;;4992734;28;20199;-49
2022/01/16 03:51:05;;;;;;;33.17;18.40;;;;;;;;;;4992665;28;20541;-49
2022/01/16 03:53:31;;;;;;;38.47;20.17;;;;;;;;;;4992319;28;20424;-49
2022/01/16 03:55:57;;;;;;;39.90;18.80;;;;;;;;;;4992640;28;20930;-49
2022/01/16 03:58:23;;;;;;;42.30;19.97;;;;;;;;;;4992617;28;20407;-49
2022/01/16 04:00:49;;;;;;;40.23;20.80;;;;;;;;;;4990721;28;20924;-50
2022/01/16 04:03:15;;;;;;;40.00;17.23;;;;;;;;;;4991815;28;20464;-49
2022/01/16 04:05:41;;;;;;;41.57;22.47;;;;;;;;;;4992569;28;20408;-49
2022/01/16 04:08:07;;;;;;;50.40;22.57;;;;;;;;;;4992371;28;20489;-48
2022/01/16 04:10:33;;;;;;;43.40;21.47;;;;;;;;;;4992513;28;20415;-49
2022/01/16 04:12:59;;;;;;;45.30;21.63;;;;;;;;;;4991490;28;20431;-49
2022/01/16 04:15:32;;;;;;;46.58;23.20;;;;;;;;;;4992482;28;20400;-49
2022/01/16 04:17:59;;;;;;;41.33;21.55;;;;;;;;;;4992458;28;20196;-48
2022/01/16 04:20:25;;;;;;;37.88;20.70;;;;;;;;;;4992334;28;20177;-49
2022/01/16 04:22:51;;;;;;;48.65;21.25;;;;;;;;;;4991969;28;20220;-49
2022/01/16 04:25:18;;;;;;;46.30;22.17;;;;;;;;;;4992406;28;20200;-48
2022/01/16 04:27:44;;;;;;;44.60;20.23;;;;;;;;;;4992265;28;20481;-49
2022/01/16 04:30:10;;;;;;;43.67;20.60;;;;;;;;;;4992455;28;20204;-49
2022/01/16 04:32:36;;;;;;;43.90;20.80;;;;;;;;;;4990290;28;20463;-49
2022/01/16 04:35:03;;;;;;;46.85;22.05;;;;;;;;;;4992250;28;20173;-48
2022/01/16 04:37:29;;;;;;;42.67;21.52;;;;;;;;;;4992403;28;20185;-49
2022/01/16 04:40:00;;;;;;;41.47;19.87;;;;;;;;;;4992286;28;20176;-49
2022/01/16 04:45:11;;;;;;;49.28;23.98;;;;;;;;;;4992215;28;20204;-48
2022/01/16 04:47:37;;;;;;;50.88;23.17;;;;;;;;;;4991995;28;20667;-49
2022/01/16 04:50:03;;;;;;;56.83;25.23;;;;;;;;;;4992127;28;20707;-49
2022/01/16 04:52:29;;;;;;;53.53;21.80;;;;;;;;;;4991825;28;20514;-49
2022/01/16 04:54:55;;;;;;;53.07;22.60;;;;;;;;;;4992035;28;20168;-49
2022/01/16 04:57:20;;;;;;;46.30;20.70;;;;;;;;;;4992122;28;20439;-48
2022/01/16 04:59:46;;;;;;;51.00;23.70;;;;;;;;;;4991077;28;20396;-49
2022/01/16 05:02:12;;;;;;;47.07;21.90;;;;;;;;;;4991628;28;20428;-49
2022/01/16 05:04:38;;;;;;;56.43;25.93;;;;;;;;;;4991342;28;20593;-49
2022/01/16 05:07:04;;;;;;;56.10;25.40;;;;;;;;;;4994793;28;20447;-48
2022/01/16 05:09:30;;;;;;;56.30;24.48;;;;;;;;;;4995102;28;20196;-48
2022/01/16 05:11:58;;;;;;;52.53;23.50;;;;;;;;;;4986138;28;20251;-48
2022/01/16 05:17:09;;;;;;;55.03;24.65;;;;;;;;;;4995879;28;20180;-48
2022/01/16 05:19:35;;;;;;;43.90;23.13;;;;;;;;;;4994593;28;20177;-48
2022/01/16 05:22:01;;;;;;;56.27;24.10;;;;;;;;;;4995015;28;20404;-48
2022/01/16 05:24:31;;;;;;;54.37;26.57;;;;;;;;;;4994663;28;20401;-48
2022/01/16 05:26:57;;;;;;;56.58;27.08;;;;;;;;;;4997828;28;20456;-48
2022/01/16 05:29:23;;;;;;;59.73;27.30;;;;;;;;;;4997610;28;20212;-48
2022/01/16 05:31:49;;;;;;;59.17;30.70;;;;;;;;;;4997802;28;20498;-48
2022/01/16 05:34:19;;;;;;;63.33;27.80;;;;;;;;;;4998104;28;20424;-49
2022/01/16 05:36:47;;;;;;;59.33;25.08;;;;;;;;;;4997414;28;20397;-49
2022/01/16 05:39:13;;;;;;;56.80;27.73;;;;;;;;;;4997325;28;20173;-50
2022/01/16 05:41:39;;;;;;;60.70;25.97;;;;;;;;;;4995409;28;20185;-48
2022/01/16 05:44:05;;;;;;;66.67;28.77;;;;;;;;;;4997730;28;20431;-49
2022/01/16 05:46:31;;;;;;;59.65;27.85;;;;;;;;;;4997385;28;20516;-48
2022/01/16 05:48:57;;;;;;;57.67;27.90;;;;;;;;;;4997805;28;20240;-48
2022/01/16 05:51:23;;;;;;;72.50;31.60;;;;;;;;;;4997100;28;20173;-48
2022/01/16 05:53:51;;;;;;;61.73;26.23;;;;;;;;;;4996976;28;20512;-47
2022/01/16 05:56:17;;;;;;;64.05;25.55;;;;;;;;;;4997106;28;20914;-49
2022/01/16 05:58:43;;;;;;;66.70;29.50;;;;;;;;;;4996955;28;20193;-50
2022/01/16 06:01:09;;;;;;;71.20;30.70;;;;;;;;;;4996669;28;20739;-49
2022/01/16 06:03:35;;;;;;;59.08;27.15;;;;;;;;;;4996144;28;20416;-49
2022/01/16 06:06:01;;;;;;;65.70;29.90;;;;;;;;;;4996895;28;20187;-50
2022/01/16 06:08:26;;;;;;;65.30;31.23;;;;;;;;;;4997053;28;20491;-49
2022/01/16 06:10:52;;;;;;;63.03;28.83;;;;;;;;;;4996582;28;20180;-48
2022/01/16 06:13:18;;;;;;;69.73;32.93;;;;;;;;;;4996937;28;20428;-48
2022/01/16 06:15:46;;;;;;;63.80;29.30;;;;;;;;;;4997560;28;20506;-49
2022/01/16 06:18:13;;;;;;;66.20;29.52;;;;;;;;;;4997083;28;20455;-48
2022/01/16 06:20:40;;;;;;;66.22;30.10;;;;;;;;;;4996802;28;20173;-50
2022/01/16 06:23:06;;;;;;;63.42;27.90;;;;;;;;;;4997038;28;20577;-48
2022/01/16 06:25:32;;;;;;;75.07;29.37;;;;;;;;;;4996750;28;20180;-49
2022/01/16 06:27:58;;;;;;;71.90;32.10;;;;;;;;;;4996929;28;20554;-50
2022/01/16 06:30:24;;;;;;;69.90;31.88;;;;;;;;;;4996711;28;20428;-49
2022/01/16 06:32:50;;;;;;;66.75;28.52;;;;;;;;;;4996389;28;20224;-48
2022/01/16 06:35:16;;;;;;;74.80;32.43;;;;;;;;;;4996207;28;20569;-48
2022/01/16 06:37:43;;;;;;;75.68;31.33;;;;;;;;;;4996085;28;20451;-49
2022/01/16 06:40:09;;;;;;;84.82;33.75;;;;;;;;;;4994690;28;20239;-48
2022/01/16 06:42:37;;;;;;;70.90;30.30;;;;;;;;;;4996592;28;20184;-48
2022/01/16 06:45:04;;;;;;;74.97;29.85;;;;;;;;;;4996806;28;20186;-49
2022/01/16 06:47:30;;;;;;;67.53;29.75;;;;;;;;;;4997336;28;20189;-48
2022/01/16 06:49:56;;;;;;;85.13;31.50;;;;;;;;;;4997140;28;20168;-48
2022/01/16 06:52:22;;;;;;;68.47;29.70;;;;;;;;;;4996450;28;20420;-49
2022/01/16 06:54:48;;;;;;;75.80;33.20;;;;;;;;;;4996882;28;20431;-48
2022/01/16 06:57:14;;;;;;;74.77;30.40;;;;;;;;;;4996742;28;20471;-49
2022/01/16 06:59:40;;;;;;;74.20;32.30;;;;;;;;;;4996508;28;20412;-48
2022/01/16 07:02:06;;;;;;;73.25;31.25;;;;;;;;;;4996170;28;20411;-48
2022/01/16 07:04:33;;;;;;;67.28;30.40;;;;;;;;;;4995880;28;20173;-49
2022/01/16 07:07:01;;;;;;;80.82;33.83;;;;;;;;;;4996324;28;20250;-48
2022/01/16 07:09:27;;;;;;;69.40;31.20;;;;;;;;;;4995051;28;20181;-49
2022/01/16 07:11:52;;;;;;;65.70;31.07;;;;;;;;;;4995216;28;20532;-49
2022/01/16 07:14:18;;;;;;;73.17;32.60;;;;;;;;;;4996457;28;20454;-49
2022/01/16 07:16:44;;;;;;;63.70;29.57;;;;;;;;;;4995667;28;20401;-48
2022/01/16 07:19:10;;;;;;;68.30;31.97;;;;;;;;;;4995854;28;20401;-49
2022/01/16 07:21:36;;;;;;;62.90;31.10;;;;;;;;;;4995506;28;20406;-48
2022/01/16 07:24:02;;;;;;;68.10;32.53;;;;;;;;;;4994879;28;20486;-48
2022/01/16 07:26:28;;;;;;;60.22;29.42;;;;;;;;;;4996150;28;20456;-49
2022/01/16 07:28:54;;;;;;;73.03;31.80;;;;;;;;;;4995765;28;20208;-48
2022/01/16 07:31:20;;;;;;;63.70;32.47;;;;;;;;;;4995783;28;20400;-48
2022/01/16 07:33:46;;;;;;;71.00;32.27;;;;;;;;;;4995337;28;20447;-48
2022/01/16 07:36:12;;;;;;;77.78;32.05;;;;;;;;;;4994971;28;20408;-48
2022/01/16 07:38:38;;;;;;;67.50;31.63;;;;;;;;;;4994116;28;20703;-48
2022/01/16 07:41:04;;;;;;;76.72;32.70;;;;;;;;;;4995430;28;20474;-49
2022/01/16 07:43:30;;;;;;;62.90;30.23;;;;;;;;;;4995576;28;20727;-48
2022/01/16 07:45:56;;;;;;;61.97;30.13;;;;;;;;;;4995275;28;20424;-49
2022/01/16 07:48:22;;;;;;;72.20;30.73;;;;;;;;;;4994610;28;20452;-48
2022/01/16 07:50:48;;;;;;;60.40;28.80;;;;;;;;;;4995108;28;20435;-49
2022/01/16 07:53:14;;;;;;;62.00;28.65;;;;;;;;;;4994574;28;20422;-48
2022/01/16 07:55:40;;;;;;;67.33;32.70;;;;;;;;;;4995439;28;20251;-48
2022/01/16 07:58:06;;;;;;;73.40;30.60;;;;;;;;;;4995680;28;20408;-48
2022/01/16 08:00:33;;;;;;;66.97;31.10;;;;;;;;;;4995347;28;20415;-49
2022/01/16 08:03:00;;;;;;;76.10;34.03;;;;;;;;;;4995109;28;20459;-48
2022/01/16 08:05:27;;;;;;;74.38;32.45;;;;;;;;;;4994925;28;20168;-50
2022/01/16 08:07:53;;;;;;;73.13;34.15;;;;;;;;;;4994472;28;20197;-48
2022/01/16 08:10:19;;;;;;;69.70;31.07;;;;;;;;;;4992990;28;20180;-48
2022/01/16 08:12:45;;;;;;;70.60;31.97;;;;;;;;;;4994648;28;20443;-48
2022/01/16 08:15:11;;;;;;;65.77;30.30;;;;;;;;;;4994243;28;20392;-49
2022/01/16 08:17:38;;;;;;;65.65;29.58;;;;;;;;;;4994422;28;20447;-49
2022/01/16 08:20:08;;;;;;;66.43;30.83;;;;;;;;;;4995186;28;20188;-48
2022/01/16 08:22:34;;;;;;;72.70;32.83;;;;;;;;;;4994134;28;20276;-48
2022/01/16 08:25:00;;;;;;;65.55;30.80;;;;;;;;;;4994870;28;20181;-48
2022/01/16 08:27:26;;;;;;;68.67;31.30;;;;;;;;;;4994941;28;20208;-48
2022/01/16 08:29:52;;;;;;;67.33;34.10;;;;;;;;;;4995080;28;20404;-48
2022/01/16 08:32:18;;;;;;;62.45;29.35;;;;;;;;;;4994646;28;20425;-48
2022/01/16 08:34:44;;;;;;;58.73;28.90;;;;;;;;;;4994984;28;20165;-49
2022/01/16 08:37:10;;;;;;;76.83;32.77;;;;;;;;;;4994666;28;20416;-48
2022/01/16 08:39:36;;;;;;;59.47;29.93;;;;;;;;;;4992832;28;20443;-49
2022/01/16 08:42:02;;;;;;;65.63;30.73;;;;;;;;;;4994396;28;20419;-49
2022/01/16 08:44:28;;;;;;;66.70;31.67;;;;;;;;;;4994937;28;20823;-49
2022/01/16 08:46:54;;;;;;;61.83;29.38;;;;;;;;;;4995060;28;20744;-49
2022/01/16 08:49:19;;;;;;;70.22;31.42;;;;;;;;;;4994853;28;20176;-48
2022/01/16 08:51:45;;;;;;;64.03;27.00;;;;;;;;;;4994593;28;20161;-47
2022/01/16 08:54:11;;;;;;;62.20;32.08;;;;;;;;;;4994666;28;20436;-48
2022/01/16 08:56:39;;;;;;;67.20;31.50;;;;;;;;;;4994811;28;20173;-48
2022/01/16 08:59:05;;;;;;;63.55;31.17;;;;;;;;;;4995810;28;20408;-49
2022/01/16 09:01:31;;;;;;;61.00;28.60;;;;;;;;;;4998585;28;20580;-49
2022/01/16 09:03:57;;;;;;;65.05;29.70;;;;;;;;;;5001754;28;20435;-49
2022/01/16 09:06:26;;;;;;;63.90;31.53;;;;;;;;;;4999915;28;20200;-50
2022/01/16 09:08:52;;;;;;;65.50;29.67;;;;;;;;;;4996078;28;20477;-49
2022/01/16 09:11:22;;;;;;;55.40;30.70;;;;;;;;;;4997402;28;20256;-50
2022/01/16 09:13:48;;;;;;;66.63;30.27;;;;;;;;;;4997848;28;20439;-49
2022/01/16 09:16:15;;;;;;;62.75;31.02;;;;;;;;;;4997960;28;20177;-50
2022/01/16 09:18:41;;;;;;;64.60;28.45;;;;;;;;;;4997979;28;20169;-50
2022/01/16 09:21:07;;;;;;;67.53;30.27;;;;;;;;;;4997057;28;20216;-49
2022/01/16 09:23:35;;;;;;;65.37;33.63;;;;;;;;;;4996665;28;20428;-49
2022/01/16 09:26:01;;;;;;;67.68;30.25;;;;;;;;;;4997091;28;20410;-49
2022/01/16 09:28:27;;;;;;;64.10;28.90;;;;;;;;;;4996468;28;20291;-48
2022/01/16 09:30:53;;;;;;;63.00;30.37;;;;;;;;;;4996427;28;20473;-48
2022/01/16 09:33:21;;;;;;;63.03;27.55;;;;;;;;;;4996437;28;20420;-50
2022/01/16 09:35:47;;;;;;;49.45;28.00;;;;;;;;;;4996307;28;20248;-51
2022/01/16 09:38:13;;;;;;;58.95;30.25;;;;;;;;;;4995392;28;20709;-50
2022/01/16 09:40:41;;;;;;;53.37;28.33;;;;;;;;;;4996286;28;20217;-50
2022/01/16 09:43:07;;;;;;;65.53;32.13;;;;;;;;;;4996144;28;20448;-49
2022/01/16 09:45:33;;;;;;;52.77;27.57;;;;;;;;;;4996338;28;20722;-50
2022/01/16 09:48:00;;;;;;;51.37;27.43;;;;;;;;;;4996325;28;20463;-50
2022/01/16 09:50:26;;;;;;;57.70;28.10;;;;;;;;;;4996073;28;20415;-50
2022/01/16 09:52:53;;;;;;;56.65;28.63;;;;;;;;;;4997087;28;20723;-49
2022/01/16 09:55:20;;;;;;;49.63;28.05;;;;;;;;;;4997558;28;20250;-50
2022/01/16 09:57:46;;;;;;;58.05;27.35;;;;;;;;;;5015117;28;20164;-48
2022/01/16 10:00:15;;;;;;;53.75;27.40;;;;;;;;;;5015359;28;20172;-49
2022/01/16 10:02:41;;;;;;;49.08;26.45;;;;;;;;;;5010562;28;20203;-49
2022/01/16 10:05:23;;;;;;;51.33;29.05;;;;;;;;;;4998304;28;20198;-49
2022/01/16 10:07:49;;;;;;;47.28;25.77;;;;;;;;;;4994717;28;20201;-49
2022/01/16 10:10:16;;;;;;;51.20;28.48;;;;;;;;;;4995382;28;20248;-50
2022/01/16 10:12:51;;;;;;;55.97;27.35;;;;;;;;;;4993800;28;20193;-48
2022/01/16 10:15:17;;;;;;;61.03;29.17;;;;;;;;;;4993379;28;20169;-50
2022/01/16 10:17:44;;;;;;;53.78;30.52;;;;;;;;;;4993916;28;20915;-48
2022/01/16 10:20:10;;;;;;;54.70;30.00;;;;;;;;;;4995939;28;20205;-48
2022/01/16 10:22:39;;;;;;;47.40;27.00;;;;;;;;;;4995263;28;20196;-48
2022/01/16 10:25:06;;;;;;;46.83;27.95;;;;;;;;;;4995136;28;20173;-48
2022/01/16 10:27:36;;;;;;;50.50;25.77;;;;;;;;;;4995256;28;20207;-48
2022/01/16 10:30:07;;;;;;;50.58;27.75;;;;;;;;;;4992177;28;20667;-48
2022/01/16 10:32:34;;;;;;;51.03;26.10;;;;;;;;;;4991383;28;20303;-48
2022/01/16 10:35:10;;;;;;;41.88;23.70;;;;;;;;;;4997099;28;20637;-47
2022/01/16 10:37:36;;;;;;;44.28;24.35;;;;;;;;;;4994579;28;20553;-47
2022/01/16 10:40:05;;;;;;;44.45;25.10;;;;;;;;;;4993985;28;20641;-48
2022/01/16 10:42:32;;;;;;;39.17;23.52;;;;;;;;;;4993687;28;20204;-48
2022/01/16 10:52:49;;;;;;;48.08;23.10;;;;;;;;;;5160024;23;20760;-84
2022/01/16 10:55:15;;;;;;;38.30;21.65;;;;;;;;;;4998671;28;20188;-82
2022/01/16 10:57:41;;;;;;;49.42;24.73;;;;;;;;;;5699899;23;20580;-52
2022/01/16 11:00:12;;;;;;;38.47;21.87;;;;;;;;;;4988332;28;20187;-50
2022/01/16 11:02:39;;;;;;;45.83;25.05;;;;;;;;;;4989740;28;20423;-51
2022/01/16 11:05:06;;;;;;;38.20;22.08;;;;;;;;;;4989659;28;20170;-51
2022/01/16 11:07:32;;;;;;;47.63;22.52;;;;;;;;;;4969382;28;20213;-51
2022/01/16 11:09:58;;;;;;;34.97;21.20;;;;;;;;;;4970261;28;20192;-52
2022/01/16 11:12:24;;;;;;;42.63;22.60;;;;;;;;;;4953248;29;20760;-52
2022/01/16 11:14:50;;;;;;;43.20;22.67;;;;;;;;;;4963010;28;20843;-51
2022/01/16 11:17:17;;;;;;;45.83;24.33;;;;;;;;;;4972386;28;20192;-51
2022/01/16 11:19:43;;;;;;;42.00;22.30;;;;;;;;;;4971058;28;20169;-52
2022/01/16 11:22:11;;;;;;;41.90;22.00;;;;;;;;;;4972606;28;20204;-52
2022/01/16 11:24:59;;;;;;;43.08;23.60;;;;;;;;;;4972382;28;20173;-52
2022/01/16 11:27:24;;;;;;;38.97;21.45;;;;;;;;;;4972131;28;20229;-52
2022/01/16 11:29:51;;;;;;;38.90;22.13;;;;;;;;;;4974572;28;20280;-52
2022/01/16 11:32:17;;;;;;;48.80;23.10;;;;;;;;;;4972427;28;20495;-52
2022/01/16 11:34:43;;;;;;;43.23;22.20;;;;;;;;;;4972488;28;20248;-52
2022/01/16 11:37:09;;;;;;;44.10;21.85;;;;;;;;;;4972544;28;20787;-52
2022/01/16 11:39:36;;;;;;;41.65;22.60;;;;;;;;;;4971286;28;20186;-52
2022/01/16 11:42:04;;;;;;;38.28;20.80;;;;;;;;;;4972688;28;20185;-52
2022/01/16 11:44:32;;;;;;;42.05;23.13;;;;;;;;;;4970375;28;20429;-52
2022/01/16 11:46:59;;;;;;;39.22;21.13;;;;;;;;;;4972544;28;20629;-52
2022/01/16 11:49:32;;;;;;;45.35;21.02;;;;;;;;;;4973039;28;20189;-52
2022/01/16 11:52:05;;;;;;;46.25;23.65;;;;;;;;;;4972990;28;20170;-52
2022/01/16 11:54:38;;;;;;;42.42;22.77;;;;;;;;;;4959683;28;20201;-52
2022/01/16 11:57:06;;;;;;;52.22;22.85;;;;;;;;;;4954685;29;20173;-52
2022/01/16 11:59:35;;;;;;;48.38;22.42;;;;;;;;;;4957433;28;20558;-52
2022/01/16 12:02:01;;;;;;;45.80;23.00;;;;;;;;;;4972041;28;20263;-52
2022/01/16 12:04:30;;;;;;;42.10;23.47;;;;;;;;;;4972456;28;20625;-52
2022/01/16 12:07:15;;;;;;;55.30;24.00;;;;;;;;;;4972433;28;20814;-52
2022/01/16 12:12:13;;;;;;;40.50;21.83;;;;;;;;;;4973068;28;20189;-52
2022/01/16 12:14:57;;;;;;;43.63;22.48;;;;;;;;;;4972607;28;20201;-52
2022/01/16 12:17:27;;;;;;;49.33;24.67;;;;;;;;;;4972133;28;20270;-53
2022/01/16 12:19:53;;;;;;;45.10;23.40;;;;;;;;;;4971001;28;20213;-52
2022/01/16 12:22:42;;;;;;;45.90;23.10;;;;;;;;;;4974120;28;20936;-51
2022/01/16 12:25:15;;;;;;;49.03;23.63;;;;;;;;;;4982153;28;20418;-52
2022/01/16 12:27:46;;;;;;;39.37;21.67;;;;;;;;;;4981271;28;20469;-51
2022/01/16 12:30:34;;;;;;;49.87;22.20;;;;;;;;;;4981742;28;20510;-52
2022/01/16 12:33:03;;;;;;;47.63;22.27;;;;;;;;;;4981951;28;20404;-52
2022/01/16 12:35:41;;;;;;;53.23;23.00;;;;;;;;;;4985495;28;20393;-51
2022/01/16 12:38:08;;;;;;;39.25;22.50;;;;;;;;;;4985904;28;20461;-51
2022/01/16 12:40:34;;;;;;;47.10;23.90;;;;;;;;;;4985820;28;20193;-52
2022/01/16 12:43:01;;;;;;;46.72;23.15;;;;;;;;;;4985306;28;20409;-51
2022/01/16 12:45:29;;;;;;;60.23;24.77;;;;;;;;;;4984178;28;20553;-52
2022/01/16 12:47:55;;;;;;;38.13;21.80;;;;;;;;;;4984349;28;20452;-52
2022/01/16 12:50:21;;;;;;;46.88;21.92;;;;;;;;;;4983978;28;20407;-51
2022/01/16 12:52:48;;;;;;;53.17;25.25;;;;;;;;;;4985947;28;20665;-51
2022/01/16 12:55:14;;;;;;;54.90;24.47;;;;;;;;;;4984842;28;20166;-52
2022/01/16 12:57:40;;;;;;;49.95;23.83;;;;;;;;;;4985274;28;20445;-51
2022/01/16 13:00:10;;;;;;;52.35;24.90;;;;;;;;;;4984050;28;20192;-51
2022/01/16 13:02:37;;;;;;;46.90;22.93;;;;;;;;;;4985046;28;20236;-51
2022/01/16 13:05:03;;;;;;;53.35;25.20;;;;;;;;;;4985760;28;20445;-51
2022/01/16 13:07:29;;;;;;;60.17;25.35;;;;;;;;;;4985523;28;20210;-51
2022/01/16 13:09:56;;;;;;;50.40;23.02;;;;;;;;;;4985906;28;20560;-51
2022/01/16 13:12:22;;;;;;;56.03;24.75;;;;;;;;;;4985984;28;20178;-51
2022/01/16 13:14:48;;;;;;;55.97;26.65;;;;;;;;;;4984358;28;20217;-51
2022/01/16 13:17:15;;;;;;;50.43;25.03;;;;;;;;;;4985929;28;20174;-51
2022/01/16 13:19:52;;;;;;;65.07;23.70;;;;;;;;;;4984796;28;20773;-51
2022/01/16 13:22:23;;;;;;;46.08;23.77;;;;;;;;;;4985285;28;20648;-51
2022/01/16 13:24:51;;;;;;;51.60;24.73;;;;;;;;;;4985192;28;20176;-51
2022/01/16 13:27:18;;;;;;;47.90;24.85;;;;;;;;;;4985060;28;20292;-52
2022/01/16 13:29:49;;;;;;;48.25;24.15;;;;;;;;;;4984336;28;20170;-51
2022/01/16 13:32:28;;;;;;;60.58;24.33;;;;;;;;;;4984598;28;20237;-51
2022/01/16 13:34:55;;;;;;;50.10;22.77;;;;;;;;;;4984531;28;20221;-52
2022/01/16 13:37:22;;;;;;;61.47;22.85;;;;;;;;;;4984593;28;20230;-51
2022/01/16 13:39:50;;;;;;;48.97;21.27;;;;;;;;;;4984085;28;20165;-51
2022/01/16 13:42:16;;;;;;;44.72;21.30;;;;;;;;;;4984396;28;20178;-51
2022/01/16 13:44:42;;;;;;;46.58;21.77;;;;;;;;;;4982827;28;20337;-51
2022/01/16 13:47:08;;;;;;;50.40;23.53;;;;;;;;;;4983259;28;20205;-51
2022/01/16 13:49:34;;;;;;;45.03;20.05;;;;;;;;;;4982897;28;20436;-51
2022/01/16 13:52:01;;;;;;;41.90;19.85;;;;;;;;;;4984689;28;20174;-52
2022/01/16 13:54:31;;;;;;;49.10;23.02;;;;;;;;;;4984459;28;20170;-51
2022/01/16 13:57:00;;;;;;;43.47;21.52;;;;;;;;;;4983364;28;20190;-51
2022/01/16 13:59:27;;;;;;;46.38;20.88;;;;;;;;;;4984308;28;20197;-52
2022/01/16 14:01:53;;;;;;;48.72;21.80;;;;;;;;;;4984446;28;20173;-51
2022/01/16 14:04:20;;;;;;;46.92;21.98;;;;;;;;;;4984015;28;20182;-51
2022/01/16 14:06:48;;;;;;;37.00;19.55;;;;;;;;;;4984666;28;20217;-51
2022/01/16 14:09:14;;;;;;;43.13;20.20;;;;;;;;;;4984111;28;20204;-51
2022/01/16 14:11:45;;;;;;;40.60;17.80;;;;;;;;;;4984793;28;20201;-51
2022/01/16 14:14:11;;;;;;;36.17;18.38;;;;;;;;;;4982974;28;20178;-51
2022/01/16 14:17:03;;;;;;;39.22;18.85;;;;;;;;;;4984464;28;20166;-51
2022/01/16 14:19:42;;;;;;;40.88;18.67;;;;;;;;;;4983617;28;20169;-51
2022/01/16 14:22:12;;;;;;;43.58;18.65;;;;;;;;;;4984452;28;20216;-51
2022/01/16 14:24:44;;;;;;;40.90;20.00;;;;;;;;;;4983946;28;20170;-51
2022/01/16 14:27:14;;;;;;;41.03;18.73;;;;;;;;;;4984019;28;20304;-51
2022/01/16 14:29:42;;;;;;;35.92;18.52;;;;;;;;;;4983285;28;20174;-51
2022/01/16 14:32:09;;;;;;;38.50;19.60;;;;;;;;;;4983415;28;20469;-52
2022/01/16 14:34:35;;;;;;;43.95;19.23;;;;;;;;;;4983822;28;20202;-51
2022/01/16 14:37:01;;;;;;;45.70;19.42;;;;;;;;;;4983475;28;20161;-51
2022/01/16 14:39:27;;;;;;;38.47;18.55;;;;;;;;;;4983163;28;20182;-51
2022/01/16 14:41:53;;;;;;;35.10;18.13;;;;;;;;;;4983497;28;20188;-51
2022/01/16 14:44:22;;;;;;;40.55;20.52;;;;;;;;;;4982841;28;20233;-51
2022/01/16 14:46:48;;;;;;;40.15;19.00;;;;;;;;;;4978626;28;20174;-51
2022/01/16 14:49:14;;;;;;;40.38;18.67;;;;;;;;;;4978547;28;20216;-51
2022/01/16 14:51:40;;;;;;;42.67;19.05;;;;;;;;;;4978423;28;20188;-51
2022/01/16 14:54:06;;;;;;;38.55;18.88;;;;;;;;;;4979046;28;20265;-51
2022/01/16 14:56:33;;;;;;;39.13;19.75;;;;;;;;;;4981812;28;20173;-52
2022/01/16 14:58:58;;;;;;;32.80;16.30;;;;;;;;;;4981363;28;20209;-51
2022/01/16 15:01:25;;;;;;;33.17;17.43;;;;;;;;;;4991071;28;20550;-51
2022/01/16 15:03:50;;;;;;;37.08;19.08;;;;;;;;;;5002271;28;20447;-51
2022/01/16 15:06:16;;;;;;;43.10;20.80;;;;;;;;;;5002219;28;20181;-51